Time,TemperatureF,DewpointF,PressureIn,WindDirection,WindDirectionDegrees,WindSpeedMPH,WindSpeedGustMPH,Humidity,HourlyPrecipIn,Conditions,Clouds,dailyrainin,SoftwareType,DateUTC
2013-07-31 00:02:00,62.0,60.0,-100.00,SSW,197,0.0,4.0,93,0.00,,,0.05,,2013-07-31 04:02:00,
2013-07-31 00:12:00,62.0,60.0,-100.00,SSW,197,0.0,4.0,93,0.00,,,0.05,,2013-07-31 04:12:00,
2013-07-31 00:22:00,62.0,60.0,-100.00,SSW,197,0.0,4.0,93,0.00,,,0.05,,2013-07-31 04:22:00,
2013-07-31 00:32:00,62.0,60.0,-100.00,SSW,197,0.0,4.0,93,0.00,,,0.05,,2013-07-31 04:32:00,
2013-07-31 01:02:00,60.0,59.0,-100.00,South,174,0.0,2.0,96,0.00,,,0.05,,2013-07-31 05:02:00,
2013-07-31 01:11:00,60.0,59.0,-100.00,South,174,0.0,2.0,96,0.00,,,0.05,,2013-07-31 05:11:00,
2013-07-31 01:22:00,60.0,59.0,-100.00,South,174,0.0,2.0,96,0.00,,,0.05,,2013-07-31 05:22:00,
2013-07-31 01:32:00,60.0,59.0,-100.00,South,174,0.0,2.0,96,0.00,,,0.05,,2013-07-31 05:32:00,
2013-07-31 02:02:00,60.0,59.0,-100.00,South,189,0.0,1.0,98,0.00,,,0.05,,2013-07-31 06:02:00,
2013-07-31 02:12:00,60.0,59.0,-100.00,South,189,0.0,1.0,98,0.00,,,0.05,,2013-07-31 06:12:00,
2013-07-31 02:22:00,60.0,59.0,-100.00,South,189,0.0,1.0,98,0.00,,,0.05,,2013-07-31 06:22:00,
2013-07-31 02:32:00,60.0,59.0,-100.00,South,189,0.0,1.0,98,0.00,,,0.05,,2013-07-31 06:32:00,
2013-07-31 03:02:00,63.0,60.0,-100.00,South,184,3.0,4.0,91,0.00,,,0.05,,2013-07-31 07:02:00,
2013-07-31 03:12:00,63.0,60.0,-100.00,South,184,3.0,4.0,91,0.00,,,0.05,,2013-07-31 07:12:00,
2013-07-31 03:22:00,63.0,60.0,-100.00,South,184,3.0,4.0,91,0.00,,,0.05,,2013-07-31 07:22:00,
2013-07-31 03:32:00,63.0,60.0,-100.00,South,184,3.0,4.0,91,0.00,,,0.05,,2013-07-31 07:32:00,
2013-07-31 04:02:00,63.0,60.0,-100.00,SSW,194,3.0,5.0,89,0.00,,,0.05,,2013-07-31 08:02:00,
2013-07-31 04:12:00,63.0,60.0,-100.00,SSW,194,3.0,5.0,89,0.00,,,0.05,,2013-07-31 08:12:00,
2013-07-31 04:22:00,63.0,60.0,-100.00,SSW,194,3.0,5.0,89,0.00,,,0.05,,2013-07-31 08:22:00,
2013-07-31 04:32:00,63.0,60.0,-100.00,SSW,194,3.0,5.0,89,0.00,,,0.05,,2013-07-31 08:32:00,
2013-07-31 05:02:00,61.0,58.0,-100.00,South,176,2.0,6.0,91,0.00,,,0.05,,2013-07-31 09:02:00,
2013-07-31 05:12:00,61.0,58.0,-100.00,South,176,2.0,6.0,91,0.00,,,0.05,,2013-07-31 09:12:00,
2013-07-31 05:22:00,61.0,58.0,-100.00,South,176,2.0,6.0,91,0.00,,,0.05,,2013-07-31 09:22:00,
2013-07-31 05:32:00,61.0,58.0,-100.00,South,176,2.0,6.0,91,0.00,,,0.05,,2013-07-31 09:32:00,
2013-07-31 06:02:00,60.0,58.0,-100.00,South,189,2.0,5.0,94,0.00,,,0.05,,2013-07-31 10:02:00,
2013-07-31 06:12:00,60.0,58.0,-100.00,South,189,2.0,5.0,94,0.00,,,0.05,,2013-07-31 10:12:00,
2013-07-31 06:22:00,60.0,58.0,-100.00,South,189,2.0,5.0,94,0.00,,,0.05,,2013-07-31 10:22:00,
2013-07-31 06:32:00,60.0,58.0,-100.00,South,189,2.0,5.0,94,0.00,,,0.05,,2013-07-31 10:32:00,
2013-07-31 07:03:00,60.0,59.0,-100.00,South,185,3.0,6.0,95,0.00,,,0.00,,2013-07-31 11:03:00,
2013-07-31 07:12:00,60.0,59.0,-100.00,South,185,3.0,6.0,95,0.00,,,0.00,,2013-07-31 11:12:00,
2013-07-31 07:22:00,60.0,59.0,-100.00,South,185,3.0,6.0,95,0.00,,,0.00,,2013-07-31 11:22:00,
2013-07-31 07:33:00,60.0,59.0,-100.00,South,185,3.0,6.0,95,0.00,,,0.00,,2013-07-31 11:33:00,
2013-07-31 08:02:00,59.0,58.0,-100.00,SSW,203,4.0,7.0,95,0.00,,,0.00,,2013-07-31 12:02:00,
2013-07-31 08:12:00,59.0,58.0,-100.00,SSW,203,4.0,7.0,95,0.00,,,0.00,,2013-07-31 12:12:00,
2013-07-31 08:22:00,59.0,58.0,-100.00,SSW,203,4.0,7.0,95,0.00,,,0.00,,2013-07-31 12:22:00,
2013-07-31 08:33:00,59.0,58.0,-100.00,SSW,203,4.0,7.0,95,0.00,,,0.00,,2013-07-31 12:33:00,
2013-07-31 09:02:00,61.0,59.0,-100.00,SSW,203,3.0,7.0,94,0.00,,,-99.99,,2013-07-31 13:02:00,
2013-07-31 09:12:00,61.0,59.0,-100.00,SSW,203,3.0,7.0,94,0.00,,,-99.99,,2013-07-31 13:12:00,
2013-07-31 09:22:00,61.0,59.0,-100.00,SSW,203,3.0,7.0,94,0.00,,,-99.99,,2013-07-31 13:22:00,
2013-07-31 09:33:00,61.0,59.0,-100.00,SSW,203,3.0,7.0,94,0.00,,,-99.99,,2013-07-31 13:33:00,
2013-07-31 10:02:00,63.0,58.0,-100.00,ENE,64,3.0,10.0,85,0.00,,,0.00,,2013-07-31 14:02:00,
2013-07-31 10:12:00,63.0,58.0,-100.00,ENE,64,3.0,10.0,85,0.00,,,0.00,,2013-07-31 14:12:00,
2013-07-31 10:23:00,63.0,58.0,-100.00,ENE,64,3.0,10.0,85,0.00,,,0.00,,2013-07-31 14:23:00,
2013-07-31 10:34:00,63.0,58.0,-100.00,ENE,64,3.0,10.0,85,0.00,,,0.00,,2013-07-31 14:34:00,
2013-07-31 11:02:00,64.0,56.0,-100.00,NNE,29,3.0,11.0,74,0.00,,,0.00,,2013-07-31 15:02:00,
2013-07-31 11:12:00,64.0,56.0,-100.00,NNE,29,3.0,11.0,74,0.00,,,0.00,,2013-07-31 15:12:00,
2013-07-31 11:22:00,64.0,56.0,-100.00,NNE,29,3.0,11.0,74,0.00,,,0.00,,2013-07-31 15:22:00,
2013-07-31 11:33:00,64.0,56.0,-100.00,NNE,29,3.0,11.0,74,0.00,,,0.00,,2013-07-31 15:33:00,
2013-07-31 12:02:00,67.0,56.0,-100.00,South,180,3.0,10.0,67,0.00,,,0.00,,2013-07-31 16:02:00,
2013-07-31 12:12:00,67.0,56.0,-100.00,South,180,3.0,10.0,67,0.00,,,0.00,,2013-07-31 16:12:00,
2013-07-31 12:22:00,67.0,56.0,-100.00,South,180,3.0,10.0,67,0.00,,,0.00,,2013-07-31 16:22:00,
2013-07-31 12:33:00,67.0,56.0,-100.00,South,180,3.0,10.0,67,0.00,,,0.00,,2013-07-31 16:33:00,
2013-07-31 13:03:00,68.0,53.0,-100.00,East,90,3.0,10.0,59,0.00,,,0.00,,2013-07-31 17:03:00,
2013-07-31 13:13:00,68.0,53.0,-100.00,East,90,3.0,10.0,59,0.00,,,0.00,,2013-07-31 17:13:00,
2013-07-31 13:22:00,68.0,53.0,-100.00,East,90,3.0,10.0,59,0.00,,,0.00,,2013-07-31 17:22:00,
2013-07-31 13:33:00,68.0,53.0,-100.00,East,90,3.0,10.0,59,0.00,,,0.00,,2013-07-31 17:33:00,
2013-07-31 14:02:00,70.0,53.0,-100.00,SW,217,6.0,14.0,55,0.00,,,0.00,,2013-07-31 18:02:00,
2013-07-31 14:13:00,70.0,53.0,-100.00,SW,217,6.0,14.0,55,0.00,,,0.00,,2013-07-31 18:13:00,
2013-07-31 14:22:00,70.0,53.0,-100.00,SW,217,6.0,14.0,55,0.00,,,0.00,,2013-07-31 18:22:00,
2013-07-31 14:32:00,70.0,53.0,-100.00,SW,217,6.0,14.0,55,0.00,,,0.00,,2013-07-31 18:32:00,
2013-07-31 15:03:00,73.0,51.0,-100.00,SSW,198,6.0,12.0,46,0.00,,,0.00,,2013-07-31 19:03:00,
2013-07-31 15:12:00,73.0,51.0,-100.00,SSW,198,6.0,12.0,46,0.00,,,0.00,,2013-07-31 19:12:00,
2013-07-31 15:22:00,73.0,51.0,-100.00,SSW,198,6.0,12.0,46,0.00,,,0.00,,2013-07-31 19:22:00,
2013-07-31 15:33:00,73.0,51.0,-100.00,SSW,198,6.0,12.0,46,0.00,,,0.00,,2013-07-31 19:33:00,
2013-07-31 16:03:00,73.0,48.0,-100.00,SSW,202,6.0,16.0,41,0.00,,,0.00,,2013-07-31 20:03:00,
2013-07-31 16:12:00,73.0,48.0,-100.00,SSW,202,6.0,16.0,41,0.00,,,0.00,,2013-07-31 20:12:00,
2013-07-31 16:22:00,73.0,48.0,-100.00,SSW,202,6.0,16.0,41,0.00,,,0.00,,2013-07-31 20:22:00,
2013-07-31 16:32:00,73.0,48.0,-100.00,SSW,202,6.0,16.0,41,0.00,,,0.00,,2013-07-31 20:32:00,
2013-07-31 17:02:00,73.0,50.0,-100.00,WSW,251,5.0,13.0,44,0.00,,,0.00,,2013-07-31 21:02:00,
2013-07-31 17:13:00,73.0,50.0,-100.00,WSW,251,5.0,13.0,44,0.00,,,0.00,,2013-07-31 21:13:00,
2013-07-31 17:22:00,73.0,50.0,-100.00,WSW,251,5.0,13.0,44,0.00,,,0.00,,2013-07-31 21:22:00,
2013-07-31 17:32:00,73.0,50.0,-100.00,WSW,251,5.0,13.0,44,0.00,,,0.00,,2013-07-31 21:32:00,
2013-07-31 18:02:00,74.0,51.0,-100.00,SSW,204,5.0,15.0,44,0.00,,,0.00,,2013-07-31 22:02:00,
2013-07-31 18:13:00,74.0,51.0,-100.00,SSW,204,5.0,15.0,44,0.00,,,0.00,,2013-07-31 22:13:00,
2013-07-31 18:22:00,74.0,51.0,-100.00,SSW,204,5.0,15.0,44,0.00,,,0.00,,2013-07-31 22:22:00,
2013-07-31 18:33:00,74.0,51.0,-100.00,SSW,204,5.0,15.0,44,0.00,,,0.00,,2013-07-31 22:33:00,
2013-07-31 19:02:00,70.0,50.0,-100.00,SSE,163,3.0,14.0,49,0.00,,,0.00,,2013-07-31 23:02:00,
2013-07-31 19:12:00,70.0,50.0,-100.00,SSE,163,3.0,14.0,49,0.00,,,0.00,,2013-07-31 23:12:00,
2013-07-31 19:22:00,70.0,50.0,-100.00,SSE,163,3.0,14.0,49,0.00,,,0.00,,2013-07-31 23:22:00,
2013-07-31 19:32:00,70.0,50.0,-100.00,SSE,163,3.0,14.0,49,0.00,,,0.00,,2013-07-31 23:32:00,
2013-07-31 20:02:00,69.0,50.0,-100.00,SSW,196,5.0,12.0,50,0.00,,,0.00,,2013-08-01 00:02:00,
2013-07-31 20:12:00,69.0,50.0,-100.00,SSW,196,5.0,12.0,50,0.00,,,0.00,,2013-08-01 00:12:00,
2013-07-31 20:22:00,69.0,50.0,-100.00,SSW,196,5.0,12.0,50,0.00,,,0.00,,2013-08-01 00:22:00,
2013-07-31 20:32:00,69.0,50.0,-100.00,SSW,196,5.0,12.0,50,0.00,,,0.00,,2013-08-01 00:32:00,
2013-07-31 21:02:00,66.0,50.0,-100.00,SW,218,4.0,11.0,57,0.00,,,0.00,,2013-08-01 01:02:00,
2013-07-31 21:12:00,66.0,50.0,-100.00,SW,218,4.0,11.0,57,0.00,,,0.00,,2013-08-01 01:12:00,
2013-07-31 21:22:00,66.0,50.0,-100.00,SW,218,4.0,11.0,57,0.00,,,0.00,,2013-08-01 01:22:00,
2013-07-31 21:33:00,66.0,50.0,-100.00,SW,218,4.0,11.0,57,0.00,,,0.00,,2013-08-01 01:33:00,
2013-07-31 22:02:00,63.0,51.0,-100.00,SSE,164,1.0,10.0,64,0.00,,,0.00,,2013-08-01 02:02:00,
2013-07-31 22:12:00,63.0,51.0,-100.00,SSE,164,1.0,10.0,64,0.00,,,0.00,,2013-08-01 02:12:00,
2013-07-31 22:22:00,63.0,51.0,-100.00,SSE,164,1.0,10.0,64,0.00,,,0.00,,2013-08-01 02:22:00,
2013-07-31 22:32:00,63.0,51.0,-100.00,SSE,164,1.0,10.0,64,0.00,,,0.00,,2013-08-01 02:32:00,
2013-07-31 23:02:00,59.0,52.0,-100.00,South,179,2.0,3.0,77,0.00,,,0.00,,2013-08-01 03:02:00,
2013-07-31 23:12:00,59.0,52.0,-100.00,South,179,2.0,3.0,77,0.00,,,0.00,,2013-08-01 03:12:00,
2013-07-31 23:22:00,59.0,52.0,-100.00,South,179,2.0,3.0,77,0.00,,,0.00,,2013-08-01 03:22:00,
2013-07-31 23:32:00,59.0,52.0,-100.00,South,179,2.0,3.0,77,0.00,,,0.00,,2013-08-01 03:32:00,